sensor_id;sensor_type;location;lat;lon;timestamp;temperature;humidity
15959;DHT22;8078;47.822;9.402;2022-07-21T00:02:02;17.60;99.90
15959;DHT22;8078;47.822;9.402;2022-07-21T00:04:27;17.50;99.90
15959;DHT22;8078;47.822;9.402;2022-07-21T00:06:53;17.60;99.90
15959;DHT22;8078;47.822;9.402;2022-07-21T00:09:19;17.60;99.90
15959;DHT22;8078;47.822;9.402;2022-07-21T00:11:44;17.50;99.90
15959;DHT22;8078;47.822;9.402;2022-07-21T00:14:11;17.50;99.90
15959;DHT22;8078;47.822;9.402;2022-07-21T00:16:38;17.50;99.90
15959;DHT22;8078;47.822;9.402;2022-07-21T00:19:04;17.50;99.90
15959;DHT22;8078;47.822;9.402;2022-07-21T00:21:30;17.50;99.90
15959;DHT22;8078;47.822;9.402;2022-07-21T00:23:56;17.50;99.90
15959;DHT22;8078;47.822;9.402;2022-07-21T00:26:21;17.50;99.90
15959;DHT22;8078;47.822;9.402;2022-07-21T00:28:47;17.50;99.90
15959;DHT22;8078;47.822;9.402;2022-07-21T00:31:13;17.50;99.90
15959;DHT22;8078;47.822;9.402;2022-07-21T00:33:39;17.50;99.90
15959;DHT22;8078;47.822;9.402;2022-07-21T00:36:04;17.50;99.90
15959;DHT22;8078;47.822;9.402;2022-07-21T00:38:30;17.50;99.90
15959;DHT22;8078;47.822;9.402;2022-07-21T00:40:56;17.60;99.90
15959;DHT22;8078;47.822;9.402;2022-07-21T00:43:22;17.50;99.90
15959;DHT22;8078;47.822;9.402;2022-07-21T00:45:48;17.60;99.90
15959;DHT22;8078;47.822;9.402;2022-07-21T00:48:13;17.60;99.90
15959;DHT22;8078;47.822;9.402;2022-07-21T00:50:39;17.60;99.90
15959;DHT22;8078;47.822;9.402;2022-07-21T00:53:05;17.50;99.90
15959;DHT22;8078;47.822;9.402;2022-07-21T00:55:30;17.50;99.90
15959;DHT22;8078;47.822;9.402;2022-07-21T00:57:56;17.50;99.90
15959;DHT22;8078;47.822;9.402;2022-07-21T01:00:26;17.50;99.90
15959;DHT22;8078;47.822;9.402;2022-07-21T01:02:53;17.50;99.90
15959;DHT22;8078;47.822;9.402;2022-07-21T01:05:18;17.50;99.90
15959;DHT22;8078;47.822;9.402;2022-07-21T01:07:50;17.50;99.90
15959;DHT22;8078;47.822;9.402;2022-07-21T01:10:16;17.50;99.90
15959;DHT22;8078;47.822;9.402;2022-07-21T01:12:43;17.50;99.90
15959;DHT22;8078;47.822;9.402;2022-07-21T01:15:11;17.50;99.90
15959;DHT22;8078;47.822;9.402;2022-07-21T01:17:37;17.50;99.90
15959;DHT22;8078;47.822;9.402;2022-07-21T01:20:08;17.60;99.90
15959;DHT22;8078;47.822;9.402;2022-07-21T01:22:35;17.50;99.90
15959;DHT22;8078;47.822;9.402;2022-07-21T01:25:01;17.60;99.90
15959;DHT22;8078;47.822;9.402;2022-07-21T01:27:28;17.60;99.90
15959;DHT22;8078;47.822;9.402;2022-07-21T01:29:54;17.60;99.90
15959;DHT22;8078;47.822;9.402;2022-07-21T01:32:21;17.60;99.90
15959;DHT22;8078;47.822;9.402;2022-07-21T01:34:46;17.60;99.90
15959;DHT22;8078;47.822;9.402;2022-07-21T01:37:13;17.50;99.90
15959;DHT22;8078;47.822;9.402;2022-07-21T01:39:39;17.60;99.90
15959;DHT22;8078;47.822;9.402;2022-07-21T01:42:23;17.50;99.90
15959;DHT22;8078;47.822;9.402;2022-07-21T01:44:49;17.50;99.90
15959;DHT22;8078;47.822;9.402;2022-07-21T01:47:14;17.50;99.90
15959;DHT22;8078;47.822;9.402;2022-07-21T01:49:43;17.50;99.90
15959;DHT22;8078;47.822;9.402;2022-07-21T01:52:08;17.50;99.90
15959;DHT22;8078;47.822;9.402;2022-07-21T01:54:34;17.50;99.90
15959;DHT22;8078;47.822;9.402;2022-07-21T01:57:00;17.50;99.90
15959;DHT22;8078;47.822;9.402;2022-07-21T01:59:25;17.50;99.90
15959;DHT22;8078;47.822;9.402;2022-07-21T02:01:51;17.50;99.90
15959;DHT22;8078;47.822;9.402;2022-07-21T02:04:16;17.50;99.90
15959;DHT22;8078;47.822;9.402;2022-07-21T02:06:42;17.50;99.90
15959;DHT22;8078;47.822;9.402;2022-07-21T02:09:08;17.50;99.90
15959;DHT22;8078;47.822;9.402;2022-07-21T02:11:34;17.50;99.90
15959;DHT22;8078;47.822;9.402;2022-07-21T02:13:59;17.50;99.90
15959;DHT22;8078;47.822;9.402;2022-07-21T02:16:26;17.40;99.90
15959;DHT22;8078;47.822;9.402;2022-07-21T02:18:52;17.40;99.90
15959;DHT22;8078;47.822;9.402;2022-07-21T02:21:18;17.40;99.90
15959;DHT22;8078;47.822;9.402;2022-07-21T02:23:43;17.40;99.90
15959;DHT22;8078;47.822;9.402;2022-07-21T02:26:09;17.30;99.90
15959;DHT22;8078;47.822;9.402;2022-07-21T02:28:34;17.40;99.90
15959;DHT22;8078;47.822;9.402;2022-07-21T02:31:00;17.30;99.90
15959;DHT22;8078;47.822;9.402;2022-07-21T02:33:26;17.30;99.90
15959;DHT22;8078;47.822;9.402;2022-07-21T02:35:52;17.30;99.90
15959;DHT22;8078;47.822;9.402;2022-07-21T02:38:17;17.30;99.90
15959;DHT22;8078;47.822;9.402;2022-07-21T02:40:43;17.30;99.90
15959;DHT22;8078;47.822;9.402;2022-07-21T02:43:09;17.30;99.90
15959;DHT22;8078;47.822;9.402;2022-07-21T02:45:34;17.30;99.90
15959;DHT22;8078;47.822;9.402;2022-07-21T02:50:30;17.20;99.90
15959;DHT22;8078;47.822;9.402;2022-07-21T02:53:02;17.20;99.90
15959;DHT22;8078;47.822;9.402;2022-07-21T02:55:29;17.30;99.90
15959;DHT22;8078;47.822;9.402;2022-07-21T02:58:11;17.20;99.90
15959;DHT22;8078;47.822;9.402;2022-07-21T03:00:40;17.10;99.90
15959;DHT22;8078;47.822;9.402;2022-07-21T03:03:06;17.10;99.90
15959;DHT22;8078;47.822;9.402;2022-07-21T03:05:32;17.10;99.90
15959;DHT22;8078;47.822;9.402;2022-07-21T03:07:58;17.00;99.90
15959;DHT22;8078;47.822;9.402;2022-07-21T03:10:24;17.00;99.90
15959;DHT22;8078;47.822;9.402;2022-07-21T03:12:50;17.10;99.90
15959;DHT22;8078;47.822;9.402;2022-07-21T03:15:15;17.10;99.90
15959;DHT22;8078;47.822;9.402;2022-07-21T03:17:41;17.10;99.90
15959;DHT22;8078;47.822;9.402;2022-07-21T03:20:07;17.10;99.90
15959;DHT22;8078;47.822;9.402;2022-07-21T03:22:33;17.10;99.90
15959;DHT22;8078;47.822;9.402;2022-07-21T03:24:59;17.00;99.90
15959;DHT22;8078;47.822;9.402;2022-07-21T03:27:25;17.00;99.90
15959;DHT22;8078;47.822;9.402;2022-07-21T03:29:51;17.00;99.90
15959;DHT22;8078;47.822;9.402;2022-07-21T03:32:16;17.00;99.90
15959;DHT22;8078;47.822;9.402;2022-07-21T03:34:42;17.00;99.90
15959;DHT22;8078;47.822;9.402;2022-07-21T03:37:08;17.00;99.90
15959;DHT22;8078;47.822;9.402;2022-07-21T03:39:34;17.00;99.90
15959;DHT22;8078;47.822;9.402;2022-07-21T03:41:59;17.00;99.90
15959;DHT22;8078;47.822;9.402;2022-07-21T03:44:25;16.90;99.90
15959;DHT22;8078;47.822;9.402;2022-07-21T03:46:50;16.90;99.90
15959;DHT22;8078;47.822;9.402;2022-07-21T03:49:16;16.90;99.90
15959;DHT22;8078;47.822;9.402;2022-07-21T03:51:42;17.00;99.90
15959;DHT22;8078;47.822;9.402;2022-07-21T03:54:07;17.00;99.90
15959;DHT22;8078;47.822;9.402;2022-07-21T03:56:33;16.90;99.90
15959;DHT22;8078;47.822;9.402;2022-07-21T03:58:58;16.90;99.90
15959;DHT22;8078;47.822;9.402;2022-07-21T04:01:24;16.90;99.90
15959;DHT22;8078;47.822;9.402;2022-07-21T04:03:49;16.90;99.90
15959;DHT22;8078;47.822;9.402;2022-07-21T04:06:15;16.90;99.90
15959;DHT22;8078;47.822;9.402;2022-07-21T04:08:40;16.90;99.90
15959;DHT22;8078;47.822;9.402;2022-07-21T04:11:06;16.80;99.90
15959;DHT22;8078;47.822;9.402;2022-07-21T04:13:32;16.80;99.90
15959;DHT22;8078;47.822;9.402;2022-07-21T04:15:57;16.80;99.90
15959;DHT22;8078;47.822;9.402;2022-07-21T04:18:23;16.70;99.90
15959;DHT22;8078;47.822;9.402;2022-07-21T04:20:48;16.80;99.90
15959;DHT22;8078;47.822;9.402;2022-07-21T04:23:14;16.80;99.90
15959;DHT22;8078;47.822;9.402;2022-07-21T04:25:39;16.80;99.90
15959;DHT22;8078;47.822;9.402;2022-07-21T04:28:05;16.80;99.90
15959;DHT22;8078;47.822;9.402;2022-07-21T04:30:31;16.80;99.90
15959;DHT22;8078;47.822;9.402;2022-07-21T04:32:57;16.80;99.90
15959;DHT22;8078;47.822;9.402;2022-07-21T04:35:23;16.80;99.90
15959;DHT22;8078;47.822;9.402;2022-07-21T04:37:49;16.80;99.90
15959;DHT22;8078;47.822;9.402;2022-07-21T04:40:16;16.80;99.90
15959;DHT22;8078;47.822;9.402;2022-07-21T04:42:42;16.70;99.90
15959;DHT22;8078;47.822;9.402;2022-07-21T04:45:10;16.80;99.90
15959;DHT22;8078;47.822;9.402;2022-07-21T04:50:12;16.80;99.90
15959;DHT22;8078;47.822;9.402;2022-07-21T04:52:37;16.80;99.90
15959;DHT22;8078;47.822;9.402;2022-07-21T04:55:04;16.80;99.90
15959;DHT22;8078;47.822;9.402;2022-07-21T04:57:29;16.80;99.90
15959;DHT22;8078;47.822;9.402;2022-07-21T04:59:55;16.80;99.90
15959;DHT22;8078;47.822;9.402;2022-07-21T05:02:20;16.80;99.90
15959;DHT22;8078;47.822;9.402;2022-07-21T05:04:46;16.90;99.90
15959;DHT22;8078;47.822;9.402;2022-07-21T05:07:11;16.80;99.90
15959;DHT22;8078;47.822;9.402;2022-07-21T05:09:37;16.80;99.90
15959;DHT22;8078;47.822;9.402;2022-07-21T05:12:03;16.80;99.90
15959;DHT22;8078;47.822;9.402;2022-07-21T05:14:29;16.80;99.90
15959;DHT22;8078;47.822;9.402;2022-07-21T05:16:54;16.90;99.90
15959;DHT22;8078;47.822;9.402;2022-07-21T05:19:20;16.90;99.90
15959;DHT22;8078;47.822;9.402;2022-07-21T05:21:45;16.90;99.90
15959;DHT22;8078;47.822;9.402;2022-07-21T05:24:12;16.90;99.90
15959;DHT22;8078;47.822;9.402;2022-07-21T05:26:38;16.90;99.90
15959;DHT22;8078;47.822;9.402;2022-07-21T05:29:03;16.80;99.90
15959;DHT22;8078;47.822;9.402;2022-07-21T05:31:29;16.90;99.90
15959;DHT22;8078;47.822;9.402;2022-07-21T05:33:55;16.90;99.90
15959;DHT22;8078;47.822;9.402;2022-07-21T05:36:20;16.90;99.90
15959;DHT22;8078;47.822;9.402;2022-07-21T05:38:46;16.90;99.90
15959;DHT22;8078;47.822;9.402;2022-07-21T05:41:12;16.90;99.90
15959;DHT22;8078;47.822;9.402;2022-07-21T05:43:37;16.90;99.90
15959;DHT22;8078;47.822;9.402;2022-07-21T05:46:03;16.90;99.90
15959;DHT22;8078;47.822;9.402;2022-07-21T05:48:29;17.00;99.90
15959;DHT22;8078;47.822;9.402;2022-07-21T05:50:54;17.00;99.90
15959;DHT22;8078;47.822;9.402;2022-07-21T05:53:20;17.00;99.90
15959;DHT22;8078;47.822;9.402;2022-07-21T05:55:46;17.00;99.90
15959;DHT22;8078;47.822;9.402;2022-07-21T05:58:11;17.00;99.90
15959;DHT22;8078;47.822;9.402;2022-07-21T06:00:37;17.10;99.90
15959;DHT22;8078;47.822;9.402;2022-07-21T06:03:03;17.20;99.90
15959;DHT22;8078;47.822;9.402;2022-07-21T06:05:28;17.10;99.90
15959;DHT22;8078;47.822;9.402;2022-07-21T06:07:54;17.10;99.90
15959;DHT22;8078;47.822;9.402;2022-07-21T06:10:32;17.10;99.90
15959;DHT22;8078;47.822;9.402;2022-07-21T06:12:58;17.10;99.90
15959;DHT22;8078;47.822;9.402;2022-07-21T06:15:23;17.10;99.90
15959;DHT22;8078;47.822;9.402;2022-07-21T06:17:49;17.10;99.90
15959;DHT22;8078;47.822;9.402;2022-07-21T06:20:15;17.10;99.90
15959;DHT22;8078;47.822;9.402;2022-07-21T06:22:40;17.10;99.90
15959;DHT22;8078;47.822;9.402;2022-07-21T06:25:06;17.10;99.90
15959;DHT22;8078;47.822;9.402;2022-07-21T06:27:32;17.30;99.90
15959;DHT22;8078;47.822;9.402;2022-07-21T06:29:58;17.30;99.90
15959;DHT22;8078;47.822;9.402;2022-07-21T06:32:25;17.30;99.90
15959;DHT22;8078;47.822;9.402;2022-07-21T06:34:51;17.30;99.90
15959;DHT22;8078;47.822;9.402;2022-07-21T06:37:16;17.50;99.90
15959;DHT22;8078;47.822;9.402;2022-07-21T06:39:42;17.60;99.90
15959;DHT22;8078;47.822;9.402;2022-07-21T06:42:08;17.60;99.90
15959;DHT22;8078;47.822;9.402;2022-07-21T06:44:34;17.70;99.90
15959;DHT22;8078;47.822;9.402;2022-07-21T06:47:00;17.80;99.90
15959;DHT22;8078;47.822;9.402;2022-07-21T06:49:31;17.70;99.90
15959;DHT22;8078;47.822;9.402;2022-07-21T06:51:57;17.60;99.90
15959;DHT22;8078;47.822;9.402;2022-07-21T06:54:23;17.60;99.90
15959;DHT22;8078;47.822;9.402;2022-07-21T06:56:48;17.80;99.90
15959;DHT22;8078;47.822;9.402;2022-07-21T06:59:14;17.90;99.90
15959;DHT22;8078;47.822;9.402;2022-07-21T07:01:39;17.90;99.90
15959;DHT22;8078;47.822;9.402;2022-07-21T07:04:05;17.80;99.90
15959;DHT22;8078;47.822;9.402;2022-07-21T07:06:30;17.90;99.90
15959;DHT22;8078;47.822;9.402;2022-07-21T07:08:56;18.00;99.90
15959;DHT22;8078;47.822;9.402;2022-07-21T07:11:22;17.90;99.90
15959;DHT22;8078;47.822;9.402;2022-07-21T07:13:47;18.00;99.90
15959;DHT22;8078;47.822;9.402;2022-07-21T07:16:13;18.10;99.90
15959;DHT22;8078;47.822;9.402;2022-07-21T07:18:38;18.30;99.90
15959;DHT22;8078;47.822;9.402;2022-07-21T07:21:04;18.50;99.90
15959;DHT22;8078;47.822;9.402;2022-07-21T07:23:30;18.30;99.90
15959;DHT22;8078;47.822;9.402;2022-07-21T07:25:56;18.20;99.90
15959;DHT22;8078;47.822;9.402;2022-07-21T07:28:21;18.60;99.90
15959;DHT22;8078;47.822;9.402;2022-07-21T07:30:47;18.60;99.90
15959;DHT22;8078;47.822;9.402;2022-07-21T07:33:14;18.70;99.90
15959;DHT22;8078;47.822;9.402;2022-07-21T07:35:39;18.50;99.90
15959;DHT22;8078;47.822;9.402;2022-07-21T07:38:05;18.90;99.90
15959;DHT22;8078;47.822;9.402;2022-07-21T07:40:31;18.90;99.90
15959;DHT22;8078;47.822;9.402;2022-07-21T07:42:56;19.20;99.90
15959;DHT22;8078;47.822;9.402;2022-07-21T07:45:22;19.50;99.90
15959;DHT22;8078;47.822;9.402;2022-07-21T07:47:47;19.80;99.90
15959;DHT22;8078;47.822;9.402;2022-07-21T07:50:14;19.50;99.90
15959;DHT22;8078;47.822;9.402;2022-07-21T07:52:42;19.30;99.90
15959;DHT22;8078;47.822;9.402;2022-07-21T07:55:08;19.40;99.90
15959;DHT22;8078;47.822;9.402;2022-07-21T07:57:36;19.20;99.90
15959;DHT22;8078;47.822;9.402;2022-07-21T08:00:05;19.20;99.90
15959;DHT22;8078;47.822;9.402;2022-07-21T08:02:35;19.30;99.90
15959;DHT22;8078;47.822;9.402;2022-07-21T08:05:01;19.30;99.90
15959;DHT22;8078;47.822;9.402;2022-07-21T08:07:27;19.30;99.90
15959;DHT22;8078;47.822;9.402;2022-07-21T08:09:52;19.20;99.90
15959;DHT22;8078;47.822;9.402;2022-07-21T08:12:18;19.20;99.90
15959;DHT22;8078;47.822;9.402;2022-07-21T08:14:44;19.10;99.90
15959;DHT22;8078;47.822;9.402;2022-07-21T08:17:09;19.00;99.90
15959;DHT22;8078;47.822;9.402;2022-07-21T08:19:35;19.70;99.90
15959;DHT22;8078;47.822;9.402;2022-07-21T08:22:01;19.80;99.90
15959;DHT22;8078;47.822;9.402;2022-07-21T08:24:27;20.30;99.90
15959;DHT22;8078;47.822;9.402;2022-07-21T08:26:52;21.00;99.90
15959;DHT22;8078;47.822;9.402;2022-07-21T08:29:18;20.70;99.90
15959;DHT22;8078;47.822;9.402;2022-07-21T08:31:44;20.80;99.90
15959;DHT22;8078;47.822;9.402;2022-07-21T08:34:09;20.70;99.90
15959;DHT22;8078;47.822;9.402;2022-07-21T08:36:35;20.70;99.90
15959;DHT22;8078;47.822;9.402;2022-07-21T08:39:00;21.10;99.90
15959;DHT22;8078;47.822;9.402;2022-07-21T08:41:26;20.80;99.90
15959;DHT22;8078;47.822;9.402;2022-07-21T08:43:52;21.00;99.90
15959;DHT22;8078;47.822;9.402;2022-07-21T08:46:21;20.90;99.90
15959;DHT22;8078;47.822;9.402;2022-07-21T08:48:47;20.60;99.90
15959;DHT22;8078;47.822;9.402;2022-07-21T08:51:13;20.80;99.90
15959;DHT22;8078;47.822;9.402;2022-07-21T08:53:44;21.20;99.90
15959;DHT22;8078;47.822;9.402;2022-07-21T08:56:09;20.90;99.90
15959;DHT22;8078;47.822;9.402;2022-07-21T08:58:35;21.10;99.90
15959;DHT22;8078;47.822;9.402;2022-07-21T09:01:02;21.10;99.90
15959;DHT22;8078;47.822;9.402;2022-07-21T09:03:28;21.00;99.90
15959;DHT22;8078;47.822;9.402;2022-07-21T09:06:08;20.90;99.90
15959;DHT22;8078;47.822;9.402;2022-07-21T09:08:37;21.10;99.90
15959;DHT22;8078;47.822;9.402;2022-07-21T09:11:26;20.40;99.90
15959;DHT22;8078;47.822;9.402;2022-07-21T09:14:08;20.60;99.90
15959;DHT22;8078;47.822;9.402;2022-07-21T09:16:35;20.80;99.90
15959;DHT22;8078;47.822;9.402;2022-07-21T09:19:01;21.10;99.90
15959;DHT22;8078;47.822;9.402;2022-07-21T09:21:27;21.50;99.90
15959;DHT22;8078;47.822;9.402;2022-07-21T09:24:10;21.20;99.90
15959;DHT22;8078;47.822;9.402;2022-07-21T09:29:21;21.00;99.90
15959;DHT22;8078;47.822;9.402;2022-07-21T09:31:47;20.70;99.90
15959;DHT22;8078;47.822;9.402;2022-07-21T09:34:13;21.00;99.90
15959;DHT22;8078;47.822;9.402;2022-07-21T09:36:54;21.10;99.90
15959;DHT22;8078;47.822;9.402;2022-07-21T09:39:44;20.90;99.90
15959;DHT22;8078;47.822;9.402;2022-07-21T09:42:28;20.50;99.90
15959;DHT22;8078;47.822;9.402;2022-07-21T09:44:58;20.20;99.90
15959;DHT22;8078;47.822;9.402;2022-07-21T09:47:28;20.40;99.90
15959;DHT22;8078;47.822;9.402;2022-07-21T09:49:55;20.60;99.90
15959;DHT22;8078;47.822;9.402;2022-07-21T09:52:35;21.00;99.90
15959;DHT22;8078;47.822;9.402;2022-07-21T09:55:07;21.50;99.90
15959;DHT22;8078;47.822;9.402;2022-07-21T09:57:33;22.30;99.90
15959;DHT22;8078;47.822;9.402;2022-07-21T09:59:59;21.50;99.90
15959;DHT22;8078;47.822;9.402;2022-07-21T10:02:27;21.00;99.90
15959;DHT22;8078;47.822;9.402;2022-07-21T10:07:32;21.70;99.90
15959;DHT22;8078;47.822;9.402;2022-07-21T10:09:58;21.50;99.90
15959;DHT22;8078;47.822;9.402;2022-07-21T10:12:26;21.60;99.90
15959;DHT22;8078;47.822;9.402;2022-07-21T10:14:53;21.70;99.90
15959;DHT22;8078;47.822;9.402;2022-07-21T10:17:22;22.00;99.90
15959;DHT22;8078;47.822;9.402;2022-07-21T10:24:56;21.90;99.90
15959;DHT22;8078;47.822;9.402;2022-07-21T10:27:22;21.50;99.90
15959;DHT22;8078;47.822;9.402;2022-07-21T10:29:48;21.30;99.90
15959;DHT22;8078;47.822;9.402;2022-07-21T10:32:16;21.50;99.90
15959;DHT22;8078;47.822;9.402;2022-07-21T10:34:41;21.90;99.90
15959;DHT22;8078;47.822;9.402;2022-07-21T10:37:08;21.70;99.90
15959;DHT22;8078;47.822;9.402;2022-07-21T10:39:34;21.80;99.90
15959;DHT22;8078;47.822;9.402;2022-07-21T10:42:16;22.50;99.90
15959;DHT22;8078;47.822;9.402;2022-07-21T10:44:43;22.80;99.90
15959;DHT22;8078;47.822;9.402;2022-07-21T10:49:54;23.10;99.90
15959;DHT22;8078;47.822;9.402;2022-07-21T10:55:23;22.00;99.90
15959;DHT22;8078;47.822;9.402;2022-07-21T10:58:14;22.10;99.90
15959;DHT22;8078;47.822;9.402;2022-07-21T11:00:49;22.50;99.90
15959;DHT22;8078;47.822;9.402;2022-07-21T11:08:52;22.70;99.90
15959;DHT22;8078;47.822;9.402;2022-07-21T11:11:25;22.50;99.90
15959;DHT22;8078;47.822;9.402;2022-07-21T11:14:11;22.20;99.90
15959;DHT22;8078;47.822;9.402;2022-07-21T11:21:53;22.00;99.90
15959;DHT22;8078;47.822;9.402;2022-07-21T11:24:21;21.60;99.90
15959;DHT22;8078;47.822;9.402;2022-07-21T11:27:03;21.60;99.90
15959;DHT22;8078;47.822;9.402;2022-07-21T11:29:30;21.70;99.90
15959;DHT22;8078;47.822;9.402;2022-07-21T11:31:56;21.80;99.90
15959;DHT22;8078;47.822;9.402;2022-07-21T11:37:05;22.50;99.90
15959;DHT22;8078;47.822;9.402;2022-07-21T11:39:30;23.30;99.90
15959;DHT22;8078;47.822;9.402;2022-07-21T11:42:05;22.80;99.90
15959;DHT22;8078;47.822;9.402;2022-07-21T11:44:32;23.20;99.90
15959;DHT22;8078;47.822;9.402;2022-07-21T11:47:00;23.90;99.90
15959;DHT22;8078;47.822;9.402;2022-07-21T11:49:26;22.80;99.90
15959;DHT22;8078;47.822;9.402;2022-07-21T11:51:54;22.30;99.90
15959;DHT22;8078;47.822;9.402;2022-07-21T11:54:30;22.40;99.90
15959;DHT22;8078;47.822;9.402;2022-07-21T11:56:57;23.30;99.90
15959;DHT22;8078;47.822;9.402;2022-07-21T11:59:23;24.00;99.90
15959;DHT22;8078;47.822;9.402;2022-07-21T12:01:59;23.80;99.90
15959;DHT22;8078;47.822;9.402;2022-07-21T12:04:55;23.80;99.90
15959;DHT22;8078;47.822;9.402;2022-07-21T12:09:56;23.60;99.90
15959;DHT22;8078;47.822;9.402;2022-07-21T12:12:30;23.20;99.90
15959;DHT22;8078;47.822;9.402;2022-07-21T12:14:56;23.50;99.90
15959;DHT22;8078;47.822;9.402;2022-07-21T12:17:34;23.40;99.90
15959;DHT22;8078;47.822;9.402;2022-07-21T12:20:00;23.10;99.90
15959;DHT22;8078;47.822;9.402;2022-07-21T12:22:42;22.90;99.90
15959;DHT22;8078;47.822;9.402;2022-07-21T12:25:13;22.70;99.90
15959;DHT22;8078;47.822;9.402;2022-07-21T12:27:41;23.40;99.90
15959;DHT22;8078;47.822;9.402;2022-07-21T12:30:09;24.60;99.90
15959;DHT22;8078;47.822;9.402;2022-07-21T12:32:45;25.50;99.90
15959;DHT22;8078;47.822;9.402;2022-07-21T12:35:26;25.00;99.90
15959;DHT22;8078;47.822;9.402;2022-07-21T12:38:01;24.70;99.90
15959;DHT22;8078;47.822;9.402;2022-07-21T12:40:28;24.40;99.90
15959;DHT22;8078;47.822;9.402;2022-07-21T12:43:06;24.00;99.90
15959;DHT22;8078;47.822;9.402;2022-07-21T12:48:11;24.10;99.90
15959;DHT22;8078;47.822;9.402;2022-07-21T12:50:39;24.40;99.90
15959;DHT22;8078;47.822;9.402;2022-07-21T12:53:09;24.50;99.90
15959;DHT22;8078;47.822;9.402;2022-07-21T12:55:36;25.00;99.90
15959;DHT22;8078;47.822;9.402;2022-07-21T12:58:02;25.70;99.90
15959;DHT22;8078;47.822;9.402;2022-07-21T13:00:27;26.10;99.90
15959;DHT22;8078;47.822;9.402;2022-07-21T13:02:54;25.10;99.90
15959;DHT22;8078;47.822;9.402;2022-07-21T13:05:21;25.50;99.90
15959;DHT22;8078;47.822;9.402;2022-07-21T13:07:47;25.20;99.90
15959;DHT22;8078;47.822;9.402;2022-07-21T13:10:13;24.80;99.90
15959;DHT22;8078;47.822;9.402;2022-07-21T13:12:39;25.00;99.90
15959;DHT22;8078;47.822;9.402;2022-07-21T13:15:05;25.00;99.90
15959;DHT22;8078;47.822;9.402;2022-07-21T13:17:31;25.10;99.90
15959;DHT22;8078;47.822;9.402;2022-07-21T13:19:56;25.20;99.90
15959;DHT22;8078;47.822;9.402;2022-07-21T13:22:22;24.70;99.90
15959;DHT22;8078;47.822;9.402;2022-07-21T13:24:48;24.70;99.90
15959;DHT22;8078;47.822;9.402;2022-07-21T13:27:13;25.00;99.90
15959;DHT22;8078;47.822;9.402;2022-07-21T13:29:39;25.40;99.90
15959;DHT22;8078;47.822;9.402;2022-07-21T13:32:06;25.20;99.90
15959;DHT22;8078;47.822;9.402;2022-07-21T13:34:32;25.60;99.90
15959;DHT22;8078;47.822;9.402;2022-07-21T13:36:58;25.60;99.90
15959;DHT22;8078;47.822;9.402;2022-07-21T13:39:24;24.70;99.90
15959;DHT22;8078;47.822;9.402;2022-07-21T13:41:52;24.90;99.90
15959;DHT22;8078;47.822;9.402;2022-07-21T13:44:18;24.90;99.90
15959;DHT22;8078;47.822;9.402;2022-07-21T13:46:44;24.90;99.90
15959;DHT22;8078;47.822;9.402;2022-07-21T13:49:09;24.30;99.90
15959;DHT22;8078;47.822;9.402;2022-07-21T13:51:35;24.30;99.90
15959;DHT22;8078;47.822;9.402;2022-07-21T13:54:01;24.40;99.90
15959;DHT22;8078;47.822;9.402;2022-07-21T13:56:26;24.60;99.90
15959;DHT22;8078;47.822;9.402;2022-07-21T13:58:52;25.20;99.90
15959;DHT22;8078;47.822;9.402;2022-07-21T14:01:18;27.00;99.90
15959;DHT22;8078;47.822;9.402;2022-07-21T14:03:44;28.10;99.90
15959;DHT22;8078;47.822;9.402;2022-07-21T14:06:11;28.50;99.90
15959;DHT22;8078;47.822;9.402;2022-07-21T14:08:38;27.50;99.90
15959;DHT22;8078;47.822;9.402;2022-07-21T14:11:05;26.90;99.90
15959;DHT22;8078;47.822;9.402;2022-07-21T14:13:30;26.50;99.90
15959;DHT22;8078;47.822;9.402;2022-07-21T14:15:56;26.10;99.90
15959;DHT22;8078;47.822;9.402;2022-07-21T14:18:21;25.90;99.90
15959;DHT22;8078;47.822;9.402;2022-07-21T14:20:47;25.40;99.90
15959;DHT22;8078;47.822;9.402;2022-07-21T14:23:18;25.00;99.90
15959;DHT22;8078;47.822;9.402;2022-07-21T14:25:43;25.50;99.90
15959;DHT22;8078;47.822;9.402;2022-07-21T14:28:09;25.10;99.90
15959;DHT22;8078;47.822;9.402;2022-07-21T14:30:35;25.40;99.90
15959;DHT22;8078;47.822;9.402;2022-07-21T14:33:00;25.70;99.90
15959;DHT22;8078;47.822;9.402;2022-07-21T14:35:26;25.10;99.90
15959;DHT22;8078;47.822;9.402;2022-07-21T14:37:52;25.40;99.90
15959;DHT22;8078;47.822;9.402;2022-07-21T14:40:19;25.80;99.90
15959;DHT22;8078;47.822;9.402;2022-07-21T14:42:45;25.40;99.90
15959;DHT22;8078;47.822;9.402;2022-07-21T14:45:13;25.30;99.90
15959;DHT22;8078;47.822;9.402;2022-07-21T14:47:38;25.30;99.90
15959;DHT22;8078;47.822;9.402;2022-07-21T14:50:04;25.60;99.90
15959;DHT22;8078;47.822;9.402;2022-07-21T14:52:30;25.60;99.90
15959;DHT22;8078;47.822;9.402;2022-07-21T14:54:55;25.50;99.90
15959;DHT22;8078;47.822;9.402;2022-07-21T14:57:21;26.20;99.90
15959;DHT22;8078;47.822;9.402;2022-07-21T14:59:47;25.40;99.90
15959;DHT22;8078;47.822;9.402;2022-07-21T15:02:12;25.60;99.90
15959;DHT22;8078;47.822;9.402;2022-07-21T15:04:38;25.50;99.90
15959;DHT22;8078;47.822;9.402;2022-07-21T15:07:03;26.70;99.90
15959;DHT22;8078;47.822;9.402;2022-07-21T15:09:29;27.50;99.90
15959;DHT22;8078;47.822;9.402;2022-07-21T15:11:55;27.10;99.90
15959;DHT22;8078;47.822;9.402;2022-07-21T15:14:20;27.20;99.90
15959;DHT22;8078;47.822;9.402;2022-07-21T15:16:46;26.60;99.90
15959;DHT22;8078;47.822;9.402;2022-07-21T15:19:11;26.30;99.90
15959;DHT22;8078;47.822;9.402;2022-07-21T15:21:37;25.80;99.90
15959;DHT22;8078;47.822;9.402;2022-07-21T15:24:03;25.20;99.90
15959;DHT22;8078;47.822;9.402;2022-07-21T15:26:29;24.90;99.90
15959;DHT22;8078;47.822;9.402;2022-07-21T15:28:54;25.50;99.90
15959;DHT22;8078;47.822;9.402;2022-07-21T15:31:20;26.30;99.90
15959;DHT22;8078;47.822;9.402;2022-07-21T15:33:45;26.60;99.90
15959;DHT22;8078;47.822;9.402;2022-07-21T15:36:11;26.20;99.90
15959;DHT22;8078;47.822;9.402;2022-07-21T15:38:37;25.80;99.90
15959;DHT22;8078;47.822;9.402;2022-07-21T15:41:02;26.00;99.90
15959;DHT22;8078;47.822;9.402;2022-07-21T15:43:29;25.70;99.90
15959;DHT22;8078;47.822;9.402;2022-07-21T15:45:54;25.30;99.90
15959;DHT22;8078;47.822;9.402;2022-07-21T15:48:20;26.10;99.90
15959;DHT22;8078;47.822;9.402;2022-07-21T15:50:46;26.10;99.90
15959;DHT22;8078;47.822;9.402;2022-07-21T15:53:12;26.80;99.90
15959;DHT22;8078;47.822;9.402;2022-07-21T15:55:38;26.70;99.90
15959;DHT22;8078;47.822;9.402;2022-07-21T15:58:04;27.00;99.90
15959;DHT22;8078;47.822;9.402;2022-07-21T16:00:29;27.20;99.90
15959;DHT22;8078;47.822;9.402;2022-07-21T16:02:55;26.80;99.90
15959;DHT22;8078;47.822;9.402;2022-07-21T16:05:23;26.50;99.90
15959;DHT22;8078;47.822;9.402;2022-07-21T16:07:51;26.70;99.90
15959;DHT22;8078;47.822;9.402;2022-07-21T16:10:18;26.90;99.90
15959;DHT22;8078;47.822;9.402;2022-07-21T16:12:44;27.20;99.90
15959;DHT22;8078;47.822;9.402;2022-07-21T16:15:10;27.90;99.90
15959;DHT22;8078;47.822;9.402;2022-07-21T16:17:37;27.20;99.90
15959;DHT22;8078;47.822;9.402;2022-07-21T16:20:07;27.20;99.90
15959;DHT22;8078;47.822;9.402;2022-07-21T16:22:34;26.60;99.90
15959;DHT22;8078;47.822;9.402;2022-07-21T16:25:00;26.80;99.90